createdAt,value
2022-08-22T00:01:23.881Z,54.39
2022-08-22T00:04:17.393Z,54.43
2022-08-22T00:07:08.665Z,55.30
2022-08-22T00:10:05.503Z,53.72
2022-08-22T00:12:54.873Z,54.81
2022-08-22T00:15:47.313Z,55.40
2022-08-22T00:18:45.066Z,54.73
2022-08-22T00:21:22.300Z,54.14
2022-08-22T00:24:28.146Z,53.57
2022-08-22T00:27:02.258Z,54.15
2022-08-22T00:29:51.397Z,54.68
2022-08-22T00:32:42.867Z,54.53
2022-08-22T00:35:34.172Z,53.70
2022-08-22T00:38:15.812Z,53.52
2022-08-22T00:41:10.317Z,56.35
2022-08-22T00:43:56.811Z,55.96
2022-08-22T00:46:36.370Z,54.92
2022-08-22T00:49:14.232Z,54.91
2022-08-22T00:52:08.038Z,55.55
2022-08-22T00:55:17.953Z,54.61
2022-08-22T00:58:16.645Z,54.37
2022-08-22T01:00:53.760Z,54.93
2022-08-22T01:03:49.208Z,54.38
2022-08-22T01:06:41.153Z,54.53
2022-08-22T01:09:47.066Z,53.79
2022-08-22T01:12:52.346Z,55.22
2022-08-22T01:15:27.164Z,52.20
2022-08-22T01:18:35.413Z,54.85
2022-08-22T01:21:47.881Z,53.68
2022-08-22T01:24:34.210Z,54.63
2022-08-22T01:27:08.019Z,54.16
2022-08-22T01:30:18.403Z,53.36
2022-08-22T01:33:08.922Z,51.36
2022-08-22T01:35:59.959Z,53.96
2022-08-22T01:38:36.811Z,53.57
2022-08-22T01:41:49.913Z,51.62
2022-08-22T01:44:32.458Z,51.62
2022-08-22T01:47:13.398Z,52.91
2022-08-22T01:49:53.359Z,51.43
2022-08-22T01:52:36.099Z,52.57
2022-08-22T01:55:38.970Z,52.24
2022-08-22T01:58:30.355Z,52.20
2022-08-22T02:01:11.045Z,52.87
2022-08-22T02:04:34.031Z,50.85
2022-08-22T02:07:17.864Z,50.88
2022-08-22T02:10:19.466Z,51.96
2022-08-22T02:13:25.469Z,52.90
2022-08-22T02:16:09.733Z,51.41
2022-08-22T02:19:15.700Z,51.36
2022-08-22T02:22:05.083Z,50.41
2022-08-22T02:24:33.705Z,51.52
2022-08-22T02:27:33.650Z,50.89
2022-08-22T02:30:22.208Z,51.37
2022-08-22T02:33:21.665Z,50.47
2022-08-22T02:35:56.805Z,52.21
2022-08-22T02:38:56.194Z,50.16
2022-08-22T02:41:31.033Z,50.88
2022-08-22T02:44:36.575Z,51.83
2022-08-22T02:47:23.263Z,50.86
2022-08-22T02:50:19.762Z,51.42
2022-08-22T02:53:03.934Z,52.21
2022-08-22T02:56:09.494Z,51.75
2022-08-22T02:58:52.114Z,51.79
2022-08-22T03:01:38.319Z,52.09
2022-08-22T03:04:46.925Z,52.54
2022-08-22T03:07:34.646Z,51.73
2022-08-22T03:10:32.426Z,52.16
2022-08-22T03:13:08.304Z,51.19
2022-08-22T03:15:50.078Z,51.92
2022-08-22T03:18:54.023Z,52.50
2022-08-22T03:21:30.542Z,50.90
2022-08-22T03:24:13.147Z,53.43
2022-08-22T03:26:40.697Z,52.74
2022-08-22T03:29:17.578Z,52.75
2022-08-22T03:32:07.546Z,52.99
2022-08-22T03:34:36.489Z,53.45
2022-08-22T03:37:30.966Z,51.55
2022-08-22T03:40:23.435Z,52.92
2022-08-22T03:43:18.337Z,53.21
2022-08-22T03:46:17.478Z,53.13
2022-08-22T03:48:52.926Z,53.46
2022-08-22T03:51:38.758Z,53.71
2022-08-22T03:54:22.173Z,53.86
2022-08-22T03:57:24.009Z,53.93
2022-08-22T04:00:28.233Z,54.38
2022-08-22T04:03:33.805Z,54.19
2022-08-22T04:06:18.139Z,53.32
2022-08-22T04:09:14.532Z,54.83
2022-08-22T04:12:10.777Z,54.77
2022-08-22T04:15:17.541Z,54.24
2022-08-22T04:18:09.097Z,53.73
2022-08-22T04:21:14.235Z,54.68
2022-08-22T04:24:10.814Z,55.72
2022-08-22T04:26:51.256Z,54.77
2022-08-22T04:29:44.697Z,55.22
2022-08-22T04:32:38.547Z,55.53
2022-08-22T04:35:19.367Z,55.07
2022-08-22T04:37:57.192Z,55.30
2022-08-22T04:41:04.417Z,53.58
2022-08-22T04:43:40.018Z,54.81
2022-08-22T04:46:41.986Z,56.24
2022-08-22T04:49:48.942Z,54.76
2022-08-22T04:52:52.426Z,53.78
2022-08-22T04:55:39.613Z,55.26
2022-08-22T04:58:45.007Z,55.15
2022-08-22T05:01:20.859Z,55.21
2022-08-22T05:03:54.114Z,55.22
2022-08-22T05:06:28.911Z,55.73
2022-08-22T05:09:04.494Z,54.29
2022-08-22T05:11:36.992Z,55.01
2022-08-22T05:14:14.125Z,54.43
2022-08-22T05:16:50.032Z,55.49
2022-08-22T05:19:29.594Z,54.12
2022-08-22T05:22:03.546Z,55.80
2022-08-22T05:24:44.399Z,55.64
2022-08-22T05:27:25.699Z,55.99
2022-08-22T05:30:21.847Z,56.08
2022-08-22T05:33:15.442Z,55.65
2022-08-22T05:35:53.410Z,55.91
2022-08-22T05:38:30.772Z,55.64
2022-08-22T05:41:09.035Z,56.03
2022-08-22T05:43:42.436Z,56.14
2022-08-22T05:46:41.800Z,54.74
2022-08-22T05:49:40.351Z,54.59
2022-08-22T05:52:36.616Z,55.23
2022-08-22T05:55:17.858Z,56.27
2022-08-22T05:57:58.876Z,55.04
2022-08-22T06:00:32.999Z,56.03
2022-08-22T06:03:20.339Z,55.83
2022-08-22T06:05:53.265Z,55.55
2022-08-22T06:08:26.274Z,55.95
2022-08-22T06:11:00.323Z,55.38
2022-08-22T06:13:52.162Z,55.34
2022-08-22T06:16:47.482Z,55.33
2022-08-22T06:19:20.270Z,56.16
2022-08-22T06:21:52.065Z,54.85
2022-08-22T06:24:28.066Z,54.09
2022-08-22T06:27:02.845Z,55.22
2022-08-22T06:29:42.731Z,54.91
2022-08-22T06:32:44.594Z,55.21
2022-08-22T06:35:18.810Z,55.12
2022-08-22T06:37:49.498Z,56.09
2022-08-22T06:40:19.571Z,54.21
2022-08-22T06:42:52.142Z,54.54
2022-08-22T06:45:30.791Z,55.44
2022-08-22T06:48:25.229Z,54.46
2022-08-22T06:50:58.816Z,55.52
2022-08-22T06:53:47.747Z,55.07
2022-08-22T06:56:24.756Z,54.71
2022-08-22T06:58:56.917Z,53.19
2022-08-22T07:01:33.455Z,54.29
2022-08-22T07:04:08.069Z,53.19
2022-08-22T07:06:50.724Z,52.85
2022-08-22T07:09:35.166Z,52.96
2022-08-22T07:12:23.403Z,53.94
2022-08-22T07:14:54.566Z,54.90
2022-08-22T07:17:27.414Z,53.61
2022-08-22T07:20:05.216Z,55.16
2022-08-22T07:22:37.750Z,54.75
2022-08-22T07:25:34.213Z,55.68
2022-08-22T07:28:08.855Z,55.00
2022-08-22T07:31:02.988Z,54.28
2022-08-22T07:33:31.721Z,54.11
2022-08-22T07:36:07.854Z,54.27
2022-08-22T07:38:50.063Z,54.18
2022-08-22T07:41:28.873Z,53.99
2022-08-22T07:44:09.166Z,54.93
2022-08-22T07:46:47.830Z,54.48
2022-08-22T07:49:22.454Z,53.45
2022-08-22T07:52:04.759Z,52.81
2022-08-22T07:54:42.230Z,52.65
2022-08-22T07:57:22.024Z,52.37
2022-08-22T07:59:56.917Z,52.84
2022-08-22T08:02:28.570Z,53.47
2022-08-22T08:05:01.468Z,54.57
2022-08-22T08:07:32.497Z,54.29
2022-08-22T08:10:13.260Z,54.33
2022-08-22T08:13:02.591Z,55.28
2022-08-22T08:15:35.553Z,55.42
2022-08-22T08:18:19.504Z,55.24
2022-08-22T08:20:56.924Z,55.13
2022-08-22T08:23:30.297Z,54.69
2022-08-22T08:26:16.163Z,54.11
2022-08-22T08:28:50.088Z,54.54
2022-08-22T08:31:43.109Z,56.12
2022-08-22T08:34:29.521Z,53.38
2022-08-22T08:37:25.980Z,54.01
2022-08-22T08:39:59.549Z,53.86
2022-08-22T08:43:20.391Z,52.95
2022-08-22T08:46:25.735Z,53.82
2022-08-22T08:49:21.069Z,51.70
2022-08-22T08:52:31.987Z,51.38
2022-08-22T08:55:37.484Z,51.72
2022-08-22T08:58:24.807Z,51.39
2022-08-22T09:01:19.496Z,50.74
2022-08-22T09:04:21.802Z,51.17
2022-08-22T09:07:31.357Z,50.77
2022-08-22T09:10:16.957Z,50.66
2022-08-22T09:13:12.462Z,49.72
2022-08-22T09:15:58.627Z,49.56
2022-08-22T09:19:27.360Z,48.34
2022-08-22T09:22:16.739Z,49.19
2022-08-22T09:24:52.690Z,49.06
2022-08-22T09:27:44.485Z,47.87
2022-08-22T09:30:29.861Z,48.18
2022-08-22T09:33:15.393Z,47.64
2022-08-22T09:36:05.112Z,47.46
2022-08-22T09:38:58.726Z,46.97
2022-08-22T09:41:56.557Z,48.22
2022-08-22T09:44:33.326Z,47.78
2022-08-22T09:47:24.556Z,47.14
2022-08-22T09:50:13.509Z,46.59
2022-08-22T09:53:14.107Z,45.31
2022-08-22T09:55:56.095Z,45.43
2022-08-22T09:58:53.175Z,45.18
2022-08-22T10:01:42.375Z,44.85
2022-08-22T10:04:48.856Z,45.67
2022-08-22T10:07:53.141Z,45.42
2022-08-22T10:11:00.858Z,44.55
2022-08-22T10:14:00.831Z,44.80
2022-08-22T10:16:43.320Z,44.43
2022-08-22T10:19:36.592Z,44.07
2022-08-22T10:22:19.001Z,44.56
2022-08-22T10:25:24.686Z,43.84
2022-08-22T10:28:31.661Z,42.97
2022-08-22T10:31:25.929Z,43.08
2022-08-22T10:34:17.725Z,42.36
2022-08-22T10:36:59.336Z,42.33
2022-08-22T10:39:43.981Z,41.12
2022-08-22T10:42:42.268Z,40.89
2022-08-22T10:45:37.037Z,41.41
2022-08-22T10:48:09.767Z,40.96
2022-08-22T10:50:45.476Z,41.10
2022-08-22T10:53:51.458Z,41.48
2022-08-22T10:56:34.236Z,41.42
2022-08-22T10:59:20.159Z,39.79
2022-08-22T11:02:24.313Z,40.29
2022-08-22T11:05:19.960Z,41.48
2022-08-22T11:08:06.591Z,42.65
2022-08-22T11:11:12.661Z,41.87
2022-08-22T11:13:53.296Z,41.31
2022-08-22T11:16:55.993Z,41.17
2022-08-22T11:19:42.158Z,40.78
2022-08-22T11:22:47.826Z,41.43
2022-08-22T11:25:35.654Z,40.98
2022-08-22T11:28:06.412Z,41.53
2022-08-22T11:31:07.012Z,40.61
2022-08-22T11:33:58.359Z,41.07
2022-08-22T11:36:31.072Z,41.03
2022-08-22T11:39:18.281Z,41.95
2022-08-22T11:42:00.664Z,42.74
2022-08-22T11:44:55.827Z,41.87
2022-08-22T11:47:44.789Z,41.96
2022-08-22T11:50:33.117Z,40.51
2022-08-22T11:53:19.140Z,40.62
2022-08-22T11:56:05.532Z,41.21
2022-08-22T11:59:15.194Z,40.17
2022-08-22T12:02:04.291Z,39.37
2022-08-22T12:04:38.820Z,40.43
2022-08-22T12:07:16.148Z,40.51
2022-08-22T12:10:00.848Z,40.54
2022-08-22T12:13:08.534Z,39.28
2022-08-22T12:15:39.141Z,36.90
2022-08-22T12:18:22.447Z,37.52
2022-08-22T12:20:59.127Z,36.84
2022-08-22T12:23:53.358Z,36.62
2022-08-22T12:26:33.073Z,37.36
2022-08-22T12:29:55.791Z,36.07
2022-08-22T12:32:34.127Z,36.23
2022-08-22T12:35:14.681Z,36.34
2022-08-22T12:38:26.416Z,35.48
2022-08-22T12:41:27.833Z,36.18
2022-08-22T12:44:21.875Z,35.73
2022-08-22T12:47:37.763Z,35.47
2022-08-22T12:50:31.551Z,34.72
2022-08-22T12:53:18.166Z,34.71
2022-08-22T12:55:56.379Z,33.98
2022-08-22T12:58:54.350Z,31.80
2022-08-22T13:01:34.075Z,32.55
2022-08-22T13:04:08.810Z,33.20
2022-08-22T13:10:03.149Z,32.06
2022-08-22T13:12:39.966Z,30.42
2022-08-22T13:15:22.064Z,30.34
2022-08-22T13:17:52.883Z,29.81
2022-08-22T13:20:37.113Z,30.91
2022-08-22T13:23:47.864Z,30.18
2022-08-22T13:26:32.954Z,28.95
2022-08-22T13:29:26.081Z,29.14
2022-08-22T13:32:02.323Z,27.34
2022-08-22T13:34:58.430Z,27.68
2022-08-22T13:37:54.430Z,27.61
2022-08-22T13:40:31.984Z,27.21
2022-08-22T13:43:15.959Z,27.66
2022-08-22T13:46:03.188Z,28.86
2022-08-22T13:48:51.322Z,29.03
2022-08-22T13:51:28.952Z,27.92
2022-08-22T13:54:12.052Z,28.32
2022-08-22T13:57:18.846Z,28.86
2022-08-22T14:00:07.490Z,28.29
2022-08-22T14:03:05.540Z,27.66
2022-08-22T14:05:41.551Z,28.61
2022-08-22T14:08:25.742Z,28.67
2022-08-22T14:11:02.098Z,29.41
2022-08-22T14:14:08.608Z,30.02
2022-08-22T14:16:49.259Z,31.15
2022-08-22T14:19:53.123Z,30.62
2022-08-22T14:22:34.953Z,31.20
2022-08-22T14:25:10.209Z,30.49
2022-08-22T14:27:51.181Z,30.18
2022-08-22T14:30:46.142Z,31.43
2022-08-22T14:33:36.717Z,30.68
2022-08-22T14:36:17.158Z,31.21
2022-08-22T14:38:56.689Z,32.41
2022-08-22T14:41:52.914Z,30.72
2022-08-22T14:44:36.626Z,31.54
2022-08-22T14:47:54.534Z,31.38
2022-08-22T14:50:11.186Z,31.48
2022-08-22T14:52:45.231Z,31.11
2022-08-22T14:55:27.268Z,31.52
2022-08-22T14:58:07.515Z,31.83
2022-08-22T15:00:48.307Z,31.96
2022-08-22T15:03:27.613Z,32.26
2022-08-22T15:06:00.901Z,31.91
2022-08-22T15:08:35.148Z,33.59
2022-08-22T15:11:22.686Z,33.61
2022-08-22T15:14:16.285Z,34.00
2022-08-22T15:16:59.026Z,34.09
2022-08-22T15:19:41.103Z,33.53
2022-08-22T15:22:27.748Z,34.32
2022-08-22T15:25:28.391Z,33.86
2022-08-22T15:28:20.842Z,34.20
2022-08-22T15:30:59.848Z,34.07
2022-08-22T15:33:45.172Z,33.90
2022-08-22T15:36:23.207Z,34.21
2022-08-22T15:39:30.787Z,35.93
2022-08-22T15:42:01.312Z,35.90
2022-08-22T15:44:40.720Z,36.73
2022-08-22T15:47:35.017Z,35.30
2022-08-22T15:50:36.446Z,35.79
2022-08-22T15:53:08.957Z,35.46
2022-08-22T15:56:23.452Z,38.30
2022-08-22T15:59:21.093Z,38.44
2022-08-22T16:02:10.246Z,38.44
2022-08-22T16:04:51.303Z,36.29
2022-08-22T16:07:42.908Z,36.79
2022-08-22T16:10:37.091Z,37.91
2022-08-22T16:13:30.292Z,37.52
2022-08-22T16:16:56.264Z,38.09
2022-08-22T16:19:29.334Z,37.96
2022-08-22T16:21:59.701Z,38.92
2022-08-22T16:24:29.038Z,37.90
2022-08-22T16:26:59.093Z,38.90
2022-08-22T16:29:41.440Z,38.34
2022-08-22T16:32:22.311Z,38.73
2022-08-22T16:34:52.102Z,39.05
2022-08-22T16:37:57.932Z,41.20
2022-08-22T16:40:28.164Z,41.53
2022-08-22T16:43:20.414Z,43.61
2022-08-22T16:45:50.263Z,48.38
2022-08-22T16:48:37.654Z,47.79
2022-08-22T16:51:21.528Z,43.88
2022-08-22T16:54:13.037Z,43.50
2022-08-22T16:56:51.396Z,43.77
2022-08-22T16:59:33.207Z,42.31
2022-08-22T17:02:23.845Z,45.67
2022-08-22T17:05:48.953Z,46.30
2022-08-22T17:08:49.681Z,46.78
2022-08-22T17:15:14.080Z,44.98
2022-08-22T17:18:20.061Z,42.05
2022-08-22T17:21:25.804Z,40.94
2022-08-22T17:24:35.388Z,40.08
2022-08-22T17:27:35.329Z,40.62
2022-08-22T17:30:07.667Z,42.59
2022-08-22T17:32:59.882Z,39.96
2022-08-22T17:39:55.860Z,39.97
2022-08-22T17:42:44.857Z,38.76
2022-08-22T17:45:34.902Z,39.48
2022-08-22T17:48:36.712Z,40.70
2022-08-22T17:51:26.489Z,41.33
2022-08-22T17:54:29.775Z,41.37
2022-08-22T17:57:09.644Z,40.34
2022-08-22T17:59:57.880Z,40.94
2022-08-22T18:02:34.355Z,41.00
2022-08-22T18:05:28.516Z,42.13
2022-08-22T18:11:20.610Z,37.06
2022-08-22T18:14:00.225Z,40.72
2022-08-22T18:16:54.379Z,37.74
2022-08-22T18:20:06.344Z,39.79
2022-08-22T18:22:41.253Z,40.96
2022-08-22T18:25:18.251Z,40.83
2022-08-22T18:28:01.974Z,41.38
2022-08-22T18:31:13.223Z,39.99
2022-08-22T18:33:52.642Z,39.79
2022-08-22T18:36:39.299Z,37.23
2022-08-22T18:39:25.592Z,38.65
2022-08-22T18:42:39.454Z,38.52
2022-08-22T18:45:16.351Z,38.02
2022-08-22T18:47:56.107Z,38.72
2022-08-22T18:50:34.509Z,38.87
2022-08-22T18:53:25.150Z,39.69
2022-08-22T18:56:08.725Z,37.43
2022-08-22T18:58:55.873Z,39.00
2022-08-22T19:02:09.973Z,39.11
2022-08-22T19:05:18.712Z,37.23
2022-08-22T19:08:35.657Z,37.38
2022-08-22T19:11:38.560Z,38.46
2022-08-22T19:14:46.517Z,38.17
2022-08-22T19:17:55.452Z,39.57
2022-08-22T19:20:56.430Z,39.03
2022-08-22T19:23:43.705Z,38.30
2022-08-22T19:26:34.844Z,38.71
2022-08-22T19:29:10.535Z,38.45
2022-08-22T19:31:46.168Z,39.41
2022-08-22T19:34:26.162Z,37.34
2022-08-22T19:37:32.720Z,38.48
2022-08-22T19:40:09.706Z,38.81
2022-08-22T19:42:44.450Z,38.96
2022-08-22T19:45:24.161Z,37.71
2022-08-22T19:48:13.987Z,38.50
2022-08-22T19:50:44.660Z,37.41
2022-08-22T19:53:36.858Z,37.66
2022-08-22T19:56:29.675Z,37.77
2022-08-22T19:59:27.693Z,38.95
2022-08-22T20:02:37.354Z,38.99
2022-08-22T20:05:19.048Z,38.77
2022-08-22T20:07:54.125Z,38.61
2022-08-22T20:14:25.003Z,38.93
2022-08-22T20:17:35.607Z,38.05
2022-08-22T20:20:17.628Z,38.25
2022-08-22T20:23:13.165Z,38.31
2022-08-22T20:25:53.295Z,38.33
2022-08-22T20:28:46.971Z,37.82
2022-08-22T20:31:25.281Z,38.21
2022-08-22T20:34:16.664Z,38.02
2022-08-22T20:36:52.792Z,38.87
2022-08-22T20:39:58.535Z,37.46
2022-08-22T20:42:31.433Z,37.55
2022-08-22T20:45:12.475Z,37.50
2022-08-22T20:47:49.416Z,37.65
2022-08-22T20:50:28.805Z,37.34
2022-08-22T20:53:14.117Z,37.77
2022-08-22T20:55:55.211Z,37.79
2022-08-22T20:58:39.268Z,38.10
2022-08-22T21:01:20.296Z,37.67
2022-08-22T21:03:53.361Z,37.15
2022-08-22T21:06:35.185Z,37.02
2022-08-22T21:09:39.493Z,37.71
2022-08-22T21:12:11.581Z,37.64
2022-08-22T21:14:50.885Z,37.90
2022-08-22T21:17:41.013Z,37.96
2022-08-22T21:20:21.442Z,36.87
2022-08-22T21:22:52.353Z,37.93
2022-08-22T21:25:21.017Z,37.59
2022-08-22T21:27:52.778Z,37.45
2022-08-22T21:30:28.484Z,36.68
2022-08-22T21:33:01.994Z,37.44
2022-08-22T21:35:33.502Z,36.40
2022-08-22T21:38:06.449Z,37.64
2022-08-22T21:40:38.247Z,37.72
2022-08-22T21:43:14.858Z,37.32
2022-08-22T21:45:47.151Z,37.74
2022-08-22T21:48:33.650Z,37.97
2022-08-22T21:51:41.398Z,36.69
2022-08-22T21:54:25.590Z,37.56
2022-08-22T21:56:57.374Z,37.44
2022-08-22T21:59:59.049Z,36.86
2022-08-22T22:02:36.978Z,37.75
2022-08-22T22:05:13.728Z,38.04
2022-08-22T22:07:44.581Z,38.03
2022-08-22T22:10:17.250Z,38.67
2022-08-22T22:12:50.337Z,37.89
2022-08-22T22:15:26.609Z,38.00
2022-08-22T22:17:56.045Z,38.25
2022-08-22T22:20:28.293Z,38.59
2022-08-22T22:22:57.151Z,38.24
2022-08-22T22:25:40.127Z,38.63
2022-08-22T22:28:22.505Z,37.95
2022-08-22T22:30:53.651Z,38.77
2022-08-22T22:33:25.347Z,38.64
2022-08-22T22:35:57.428Z,38.40
2022-08-22T22:38:26.346Z,38.40
2022-08-22T22:40:55.448Z,38.37
2022-08-22T22:43:24.102Z,38.87
2022-08-22T22:45:53.547Z,38.79
2022-08-22T22:48:24.915Z,38.76
2022-08-22T22:50:58.114Z,39.15
2022-08-22T22:53:33.812Z,38.99
2022-08-22T22:56:12.944Z,38.54
2022-08-22T22:58:42.400Z,38.43
2022-08-22T23:01:20.994Z,38.69
2022-08-22T23:03:54.929Z,38.42
2022-08-22T23:06:30.451Z,38.66
2022-08-22T23:08:59.178Z,39.53
2022-08-22T23:11:30.296Z,39.31
2022-08-22T23:13:59.228Z,39.03
2022-08-22T23:16:36.618Z,39.57
2022-08-22T23:19:13.992Z,39.42
2022-08-22T23:21:44.695Z,39.24
2022-08-22T23:24:15.108Z,39.77
2022-08-22T23:26:45.058Z,39.61
2022-08-22T23:29:13.545Z,39.59
2022-08-22T23:31:48.425Z,39.26
2022-08-22T23:34:25.357Z,40.09
2022-08-22T23:36:57.597Z,39.84
2022-08-22T23:39:28.882Z,40.55
2022-08-22T23:41:58.284Z,40.49
2022-08-22T23:44:30.571Z,40.56
2022-08-22T23:47:00.383Z,40.78
2022-08-22T23:49:29.875Z,40.76
2022-08-22T23:51:58.634Z,40.25
2022-08-22T23:54:28.816Z,40.79
2022-08-22T23:57:01.202Z,40.22
2022-08-22T23:59:33.959Z,40.61
